Station info - map view · info · telemetry · weather · raw · status · beacons · messages · bulletins · browse · moving · my account
Callsign, ship name or locator: Clear       
It is possible to search using wildcards (*?) after a prefix. Example: OH*
APRS station HB9DNX-9 - show graphs
Map loading...
Mic-E message: Custom 6
Location: 47°08.58' N 7°32.03' E - locator JN37SD44BH - show map - static map
0.7 miles Northwest bearing 332° from Bätterkinden, Emmental, Bern, Switzerland [?]
1.5 miles Northwest bearing 308° from Utzenstorf, Emmental, Bern, Switzerland
50.1 miles West bearing 252° from Zürich, Bezirk Zürich, Zurich, Switzerland
60.7 miles South bearing 194° from Freiburg, Regierungsbezirk Freiburg, Baden-Württemberg, Germany
Last position: 2019-12-06 07:45:19 EST (46m23s ago)
2019-12-06 13:45:19 CET local time at Bätterkinden, Switzerland [?]
Altitude: 1503 ft
Course: 33°
Speed: 0 MPH
Device: Yaesu: FTM-400DR (rig)
Last path: HB9DNX-9>47AXU8 via qAR,HB9IPA-10
Positions stored: 8266
Packet rate: 35 seconds between packets on average during 1720 seconds.
Other SSIDs: HB9DNX HB9DNX-7 HB9DNX-DP
Stations near current position of HB9DNX-9 - show more
callsign distance last heard - EST      callsign distance last heard - EST
HB9DNX14.1 yards 90°2019-12-06 08:26:31 HB9DNX-714.1 yards 90°2019-11-26 05:15:05
HB3YDB2.1 miles 32°2019-12-06 08:30:32 HB9DGV-52.5 miles 104°2019-11-09 17:21:39
HB9OOC2.8 miles 39°2019-12-06 08:30:05 HB3YDW3.8 miles 240°2019-12-06 07:59:36
HB3YDW-83.8 miles 240°2019-12-06 08:27:42 HB9ERX-24.4 miles 155°2019-11-20 04:58:26
HB9BA-44.4 miles 357°2019-12-06 08:18:32 HB9BA-54.4 miles 357°2019-12-06 08:10:09
HB9RNQ-64.6 miles 348°2019-12-04 08:34:05 HB9BA-85.0 miles 177°2019-12-06 08:08:40
HB9BA-25.0 miles 177°2019-12-06 08:17:57 HB9PVI-55.0 miles 177°2019-12-04 16:52:20
HB9PVI-85.0 miles 177°2019-12-06 08:26:59 HB9PVI-25.0 miles 177°2019-12-06 08:30:39
HB9PVI-45.0 miles 177°2019-12-06 08:04:22 HB9PVI-65.0 miles 177°2019-11-28 14:40:28
HB9PVI-P25.0 miles 177°2019-12-06 08:30:38 HB9PVI-155.0 miles 177°2019-12-01 06:19:53
Stations which heard HB9DNX-9 directly on radio –
callsign pkts first heard - EST last heard longest (tx => rx) longest at - EST
HB9FS 10 2019-12-03 03:55:10 2019-12-03 08:10:33 JN37TN > JN37VL 12.1 miles 125° 2019-12-03 04:15:02
HB9BA-2 19 2019-12-03 03:15:48 2019-12-06 07:41:26 JN37VH > JN37SB 22.4 miles 216° 2019-12-03 08:17:05
HB9BA-4 4 2019-12-03 08:27:27 2019-12-06 07:35:51 JN37TF > JN37SE 5.0 miles 250° 2019-12-03 08:27:27
HB9FM-4 18 2019-12-03 04:04:07 2019-12-03 04:21:50 JN37UM > JN37SM 7.3 miles 270° 2019-12-03 04:04:07
F8KOX-4 5 2019-12-03 04:04:09 2019-12-03 08:11:43 JN37VJ > JN37KT 52.9 miles 302° 2019-12-03 08:11:43
HB9LU-10 1 2019-12-03 03:50:26 2019-12-03 03:50:26 JN37VI > JN47DB 29.0 miles 134° 2019-12-03 03:50:26
HB9IPA 13 2019-12-03 04:01:41 2019-12-03 04:20:46 JN37VL > JN37TN 8.3 miles 305° 2019-12-03 04:01:41
HB9RF-10 14 2019-12-03 03:20:54 2019-12-06 07:41:37 JN37SF > JN47GA 49.2 miles 105° 2019-12-06 07:24:23
HB4FV-4 1 2019-12-03 08:24:26 2019-12-03 08:24:26 JN37UG > JN36EQ 71.9 miles 238° 2019-12-03 08:24:26
DB0DB-10 13 2019-12-03 03:53:59 2019-12-03 04:21:15 JN37VJ > JN37US 27.8 miles 349° 2019-12-03 03:53:59
HB9PM-4 7 2019-12-03 03:15:51 2019-12-06 07:32:24 JN37SD > JN37SG 8.6 miles 12° 2019-12-03 03:15:51
HB9FM-10 2 2019-12-03 04:02:50 2019-12-03 04:19:03 JN37VM > JN37SK 10.0 miles 246° 2019-12-03 04:02:50
DB0TOD-10 2 2019-12-03 03:54:34 2019-12-03 08:12:17 JN37VJ > JN37XS 27.1 miles 17° 2019-12-03 03:54:34
HB9FX-10 13 2019-12-03 03:18:16 2019-12-03 08:24:24 JN37SD > JN37XH 23.3 miles 64° 2019-12-03 03:18:53
HB9CR-4 1 2019-12-03 03:42:41 2019-12-03 03:42:41 JN37UG > JN37SJ 12.5 miles 309° 2019-12-03 03:42:41
HB9ARI-4 23 2019-12-03 03:22:52 2019-12-06 07:35:36 JN37UG > JN37NC 30.7 miles 246° 2019-12-03 08:24:09
HB9F-10 6 2019-12-03 03:35:31 2019-12-03 08:23:49 JN37WI > JN36WN 54.6 miles 180° 2019-12-03 08:15:54
HB9TQL-10 4 2019-12-03 04:05:21 2019-12-03 04:21:50 JN37TO > JN37UM 7.1 miles 131° 2019-12-03 04:21:50
HB9IPA-10 75 2019-12-03 03:16:23 2019-12-06 07:45:19 JN37SD > JN37SG 8.5 miles 351° 2019-12-03 08:41:12
DB0SAC 3 2019-12-03 04:09:09 2019-12-06 07:11:40 JN37SE > JN37XN 33.1 miles 35° 2019-12-06 07:11:40
HB9BHU-10 24 2019-12-03 03:30:12 2019-12-06 07:32:17 JN37SF > JN37XG 21.5 miles 77° 2019-12-06 07:26:18
HB9FEF-11 25 2019-12-03 03:55:09 2019-12-03 08:12:52 JN37TO > JN37VL 10.2 miles 134° 2019-12-03 04:21:16

Only position packets which were originated by the station are shown here. The range statistics show some extra long hops, because some digipeaters do not correctly add themselves to the digipeater path. Please check the raw packets.
About this site
This page shows real-time information collected from the Automatic Position Reporting System Internet network (APRS-IS). APRS is used by amateur (ham) radio operators to transmit real-time position information, weather data, telemetry and messages over the radio. A vehicle equipped with a GPS receiver, a VHF transmitter or HF transceiver and a small computer device called a tracker transmits it's location, speed and course in a small data packet, which is then received by a nearby iGate receiving site which forwards the packet on the Internet. Systems connected to the Internet can send information on the APRS-IS without a radio transmitter, or collect and display information transmitted anywhere in the world.
User guide · FAQ · Blog · Discussion group · Linking to aprs.fi · AIS sites · Service status · Database statistics · Advertising on aprs.fi · Technical details · API · Change log · Planned changes · Credits and thanks · Terms Of Service · iPhone/iPad APRS